Flight Track Log - Related Links

Times and Time Zones

All times are in EST time to prevent confusion due to time zone crossing. See the N632TK flight status page for this flight to view local times or setup timezone preferences in your user account.

Time Position Orientation Groundspeed Altitude Reporting Facility
EST Latitude Longitude Course Direction KTS MPH feet Rate Location/Type
Wed 06:08:13 PM 47.8467 -122.2931 195° South 110 127 2,100  Level Seattle Center
Wed 06:09:08 PM 47.8261 -122.3178 219° Southwest 102 117 2,000 52 Descending Seattle Center
Wed 06:10:09 PM 47.8025 -122.3475 220° Southwest 107 123 2,200 148 Climbing Seattle Center
Wed 06:11:10 PM 47.7781 -122.3742 216° Southwest 124 143 2,300 50 Climbing Seattle Center
Wed 06:12:10 PM 47.7503 -122.3981 210° Southwest 115 132 2,300  Level Seattle Center
Wed 06:12:17 PM 47.7469 -122.4011 212° Southwest 116 133 2,300  Level Seattle Center
Wed 06:13:11 PM 47.7208 -122.4211 207° Southwest 119 137 2,300  Level Seattle Center
Wed 06:13:18 PM 47.7172 -122.4242 210° Southwest 123 142 2,300  Level Seattle Center
Wed 06:14:12 PM 47.6883 -122.4228 178° South 114 131 2,300  Level Seattle Center
Wed 06:14:18 PM 47.6844 -122.4258 208° Southwest 112 129 2,300  Level Seattle Center
Wed 06:15:13 PM 47.6589 -122.4125 161° South 114 131 2,300  Level Seattle Center
Wed 06:15:19 PM 47.6556 -122.4089 144° Southeast 107 123 2,300 -82 Level Seattle Center
Wed 06:16:26 PM 47.6308 -122.3894 152° Southeast 94 108 2,200 -207 Descending Seattle Center
Wed 06:17:15 PM 47.6136 -122.3728 147° Southeast 87 100 1,900 -436 Descending Seattle Center
Wed 06:17:21 PM 47.6133 -122.3731 214° Southwest 84 97 1,800 -492 Descending Seattle Center
Wed 06:18:16 PM 47.5917 -122.3550 151° Southeast 89 102 1,400 -492 Descending Seattle Center
Wed 06:18:22 PM 47.5903 -122.3528 133° Southeast 90 104 1,300 -492 Descending Seattle Center
Wed 06:19:17 PM 47.5700 -122.3364 151° Southeast 90 104 900 -492 Descending Seattle Center
Wed 06:19:23 PM 47.5656 -122.3336 157° South 101 116 800 -590 Descending Seattle Center
Wed 06:20:18 PM 47.5486 -122.3186 149° Southeast 89 102 300 -492 Descending Seattle Center
Wed 06:20:24 PM 47.5489 -122.3200 287° West 97 112 300 -197 Level Seattle Center
Wed 06:21:19 PM 47.5272 -122.3022 151° Southeast 86 99 100 -218 Descending Seattle Center

Login

Don't have an account? Register now (free) for customized features, flight alerts, and more!